createdAt,value
2017-11-29T00:00:13.604Z,23.68
2017-11-29T00:02:45.729Z,23.77
2017-11-29T00:05:17.916Z,23.82
2017-11-29T00:07:49.871Z,23.72
2017-11-29T00:10:21.738Z,23.67
2017-11-29T00:12:54.271Z,23.67
2017-11-29T00:15:26.495Z,23.62
2017-11-29T00:17:59.465Z,23.58
2017-11-29T00:20:31.241Z,23.42
2017-11-29T00:23:02.992Z,23.25
2017-11-29T00:25:34.124Z,23.12
2017-11-29T00:28:06.066Z,23.89
2017-11-29T00:30:37.673Z,24.44
2017-11-29T00:33:09.389Z,24.33
2017-11-29T00:35:41.012Z,23.98
2017-11-29T00:38:13.098Z,23.78
2017-11-29T00:40:44.880Z,23.79
2017-11-29T00:43:16.625Z,23.72
2017-11-29T00:45:48.359Z,23.75
2017-11-29T00:48:20.164Z,23.81
2017-11-29T00:50:51.716Z,23.73
2017-11-29T00:53:24.415Z,23.69
2017-11-29T00:55:56.171Z,23.74
2017-11-29T00:58:28.511Z,23.66
2017-11-29T01:01:01.113Z,23.74
2017-11-29T01:03:32.614Z,23.67
2017-11-29T01:08:33.828Z,23.61
2017-11-29T01:11:06.474Z,23.59
2017-11-29T01:13:39.069Z,23.53
2017-11-29T01:16:11.920Z,23.54
2017-11-29T01:18:44.667Z,23.44
2017-11-29T01:21:16.490Z,23.33
2017-11-29T01:23:48.395Z,23.21
2017-11-29T01:26:20.258Z,23.78
2017-11-29T01:28:52.870Z,24.49
2017-11-29T01:31:24.561Z,24.59
2017-11-29T01:33:56.406Z,24.19
2017-11-29T01:36:28.041Z,23.99
2017-11-29T01:38:59.928Z,23.86
2017-11-29T01:41:31.423Z,23.75
2017-11-29T01:44:03.715Z,23.77
2017-11-29T01:46:35.527Z,23.75
2017-11-29T01:49:07.133Z,23.74
2017-11-29T01:51:38.947Z,23.74
2017-11-29T01:54:10.824Z,23.72
2017-11-29T01:56:42.682Z,23.75
2017-11-29T01:59:14.701Z,23.74
2017-11-29T02:01:46.442Z,23.70
2017-11-29T02:04:18.327Z,23.66
2017-11-29T02:06:50.121Z,23.63
2017-11-29T02:09:21.939Z,23.65
2017-11-29T02:11:53.481Z,23.66
2017-11-29T02:14:26.553Z,23.63
2017-11-29T02:16:58.319Z,23.41
2017-11-29T02:19:30.301Z,23.16
2017-11-29T02:22:02.891Z,23.07
2017-11-29T02:24:34.492Z,23.77
2017-11-29T02:27:07.587Z,24.36
2017-11-29T02:29:39.336Z,24.31
2017-11-29T02:32:12.437Z,23.94
2017-11-29T02:34:44.413Z,23.67
2017-11-29T02:37:16.181Z,23.63
2017-11-29T02:39:56.883Z,23.58
2017-11-29T02:42:43.195Z,23.57
2017-11-29T02:45:16.236Z,23.56
2017-11-29T02:47:47.916Z,23.55
2017-11-29T02:50:20.582Z,23.53
2017-11-29T02:52:52.536Z,23.49
2017-11-29T02:55:24.340Z,23.47
2017-11-29T02:57:56.270Z,23.52
2017-11-29T03:00:28.500Z,23.51
2017-11-29T03:03:00.497Z,23.44
2017-11-29T03:05:32.327Z,23.41
2017-11-29T03:08:03.988Z,23.43
2017-11-29T03:10:35.714Z,23.52
2017-11-29T03:13:07.444Z,23.43
2017-11-29T03:15:39.442Z,23.34
2017-11-29T03:18:11.192Z,23.33
2017-11-29T03:20:42.973Z,23.23
2017-11-29T03:23:14.755Z,23.11
2017-11-29T03:25:46.416Z,22.98
2017-11-29T03:28:18.470Z,23.55
2017-11-29T03:30:50.130Z,24.34
2017-11-29T03:33:21.971Z,24.34
2017-11-29T03:35:54.760Z,23.92
2017-11-29T03:38:27.737Z,23.72
2017-11-29T03:41:00.135Z,23.57
2017-11-29T03:43:31.678Z,23.56
2017-11-29T03:46:03.590Z,23.52
2017-11-29T03:48:35.337Z,23.53
2017-11-29T03:51:07.090Z,23.55
2017-11-29T03:53:39.049Z,23.57
2017-11-29T03:56:10.872Z,23.49
2017-11-29T03:58:42.793Z,23.48
2017-11-29T04:01:14.453Z,23.51
2017-11-29T04:03:45.976Z,23.51
2017-11-29T04:06:17.728Z,23.49
2017-11-29T04:08:50.403Z,23.48
2017-11-29T04:11:23.096Z,23.49
2017-11-29T04:13:55.059Z,23.44
2017-11-29T04:16:26.752Z,23.39
2017-11-29T04:18:59.240Z,23.34
2017-11-29T04:21:31.145Z,23.31
2017-11-29T04:24:02.919Z,23.22
2017-11-29T04:26:35.644Z,23.08
2017-11-29T04:29:08.665Z,22.95
2017-11-29T04:31:41.342Z,22.88
2017-11-29T04:34:12.944Z,23.89
2017-11-29T04:36:46.065Z,24.18
2017-11-29T04:39:18.774Z,24.14
2017-11-29T04:41:51.625Z,23.79
2017-11-29T04:44:24.303Z,23.55
2017-11-29T04:46:57.092Z,23.55
2017-11-29T04:49:29.540Z,23.57
2017-11-29T04:52:01.764Z,23.58
2017-11-29T04:54:34.702Z,23.53
2017-11-29T04:57:06.517Z,23.53
2017-11-29T04:59:39.141Z,23.54
2017-11-29T05:02:11.110Z,23.49
2017-11-29T05:04:43.592Z,23.51
2017-11-29T05:07:16.425Z,23.45
2017-11-29T05:09:49.266Z,23.42
2017-11-29T05:12:20.936Z,23.37
2017-11-29T05:14:52.747Z,23.50
2017-11-29T05:17:25.448Z,23.51
2017-11-29T05:19:57.209Z,23.45
2017-11-29T05:22:29.857Z,23.47
2017-11-29T05:25:02.669Z,23.45
2017-11-29T05:27:35.596Z,23.46
2017-11-29T05:30:07.447Z,23.40
2017-11-29T05:32:39.283Z,23.39
2017-11-29T05:35:11.940Z,23.24
2017-11-29T05:37:44.437Z,22.97
2017-11-29T05:40:16.978Z,22.74
2017-11-29T05:42:49.905Z,22.65
2017-11-29T05:45:22.655Z,23.25
2017-11-29T05:47:55.489Z,24.16
2017-11-29T05:50:28.322Z,24.24
2017-11-29T05:53:00.258Z,23.92
2017-11-29T05:55:32.081Z,23.78
2017-11-29T05:58:05.496Z,23.71
2017-11-29T06:00:38.235Z,23.73
2017-11-29T06:03:09.951Z,23.71
2017-11-29T06:05:41.863Z,23.75
2017-11-29T06:08:14.592Z,23.78
2017-11-29T06:10:47.266Z,23.80
2017-11-29T06:13:20.116Z,23.82
2017-11-29T06:15:52.013Z,23.86
2017-11-29T06:18:24.634Z,23.85
2017-11-29T06:20:56.626Z,23.90
2017-11-29T06:23:29.390Z,23.89
2017-11-29T06:26:03.754Z,23.89
2017-11-29T06:28:36.738Z,23.95
2017-11-29T06:31:08.834Z,23.97
2017-11-29T06:33:41.864Z,23.99
2017-11-29T06:36:14.625Z,24.00
2017-11-29T06:38:46.606Z,23.52
2017-11-29T06:41:19.221Z,23.35
2017-11-29T06:43:51.553Z,23.18
2017-11-29T06:46:23.728Z,23.70
2017-11-29T06:48:56.386Z,24.49
2017-11-29T06:51:31.331Z,24.62
2017-11-29T06:54:05.838Z,24.28
2017-11-29T06:56:38.553Z,24.01
2017-11-29T06:59:11.264Z,23.77
2017-11-29T07:01:44.125Z,23.75
2017-11-29T07:04:16.744Z,23.79
2017-11-29T07:06:50.809Z,23.68
2017-11-29T07:09:23.602Z,23.69
2017-11-29T07:11:58.013Z,23.63
2017-11-29T07:14:29.745Z,23.67
2017-11-29T07:17:04.198Z,23.61
2017-11-29T07:19:36.090Z,23.58
2017-11-29T07:22:09.108Z,23.45
2017-11-29T07:24:41.266Z,23.51
2017-11-29T07:27:14.172Z,23.45
2017-11-29T07:29:46.042Z,23.33
2017-11-29T07:32:17.778Z,23.34
2017-11-29T07:34:50.750Z,23.28
2017-11-29T07:37:22.710Z,23.33
2017-11-29T07:39:54.333Z,23.28
2017-11-29T07:42:26.279Z,23.30
2017-11-29T07:44:59.162Z,23.25
2017-11-29T07:47:30.961Z,23.23
2017-11-29T07:50:02.698Z,23.21
2017-11-29T07:52:35.307Z,23.19
2017-11-29T07:55:07.952Z,23.21
2017-11-29T07:57:40.682Z,23.21
2017-11-29T08:00:13.923Z,23.22
2017-11-29T08:02:46.109Z,23.23
2017-11-29T08:05:18.859Z,23.21
2017-11-29T08:07:50.566Z,23.23
2017-11-29T08:10:22.475Z,23.25
2017-11-29T08:12:54.591Z,23.22
2017-11-29T08:15:26.891Z,23.16
2017-11-29T08:17:59.570Z,23.29
2017-11-29T08:20:31.339Z,23.21
2017-11-29T08:23:03.172Z,23.24
2017-11-29T08:25:35.028Z,23.17
2017-11-29T08:28:07.013Z,23.22
2017-11-29T08:30:38.718Z,23.22
2017-11-29T08:33:10.525Z,23.19
2017-11-29T08:35:43.677Z,23.24
2017-11-29T08:38:15.544Z,23.21
2017-11-29T08:40:48.225Z,23.28
2017-11-29T08:43:20.444Z,23.24
2017-11-29T08:45:52.057Z,23.25
2017-11-29T08:48:24.172Z,23.22
2017-11-29T08:50:56.319Z,23.17
2017-11-29T08:53:28.085Z,23.18
2017-11-29T08:55:59.638Z,23.14
2017-11-29T08:58:32.437Z,23.08
2017-11-29T09:01:04.205Z,23.10
2017-11-29T09:03:36.196Z,23.07
2017-11-29T09:06:08.108Z,23.08
2017-11-29T09:08:40.075Z,23.06
2017-11-29T09:11:12.103Z,23.02
2017-11-29T09:13:43.910Z,23.06
2017-11-29T09:16:15.789Z,23.09
2017-11-29T09:18:47.490Z,23.07
2017-11-29T09:21:19.202Z,23.02
2017-11-29T09:23:51.071Z,23.03
2017-11-29T09:26:23.530Z,23.00
2017-11-29T09:28:55.680Z,23.06
2017-11-29T09:31:27.580Z,23.03
2017-11-29T09:33:59.549Z,23.02
2017-11-29T09:36:31.683Z,23.02
2017-11-29T09:39:05.259Z,22.98
2017-11-29T09:41:38.459Z,22.98
2017-11-29T09:44:09.381Z,23.01
2017-11-29T09:46:42.956Z,23.00
2017-11-29T09:49:15.584Z,22.93
2017-11-29T09:51:47.559Z,22.89
2017-11-29T09:54:19.358Z,22.89
2017-11-29T09:56:51.496Z,22.87
2017-11-29T09:59:23.299Z,22.83
2017-11-29T10:01:55.239Z,22.84
2017-11-29T10:04:28.972Z,22.91
2017-11-29T10:07:01.513Z,22.53
2017-11-29T10:09:32.734Z,22.29
2017-11-29T10:12:05.517Z,22.08
2017-11-29T10:14:36.535Z,21.97
2017-11-29T10:17:08.374Z,21.78
2017-11-29T10:19:41.419Z,22.02
2017-11-29T10:22:13.358Z,23.29
2017-11-29T10:24:45.340Z,24.03
2017-11-29T10:27:17.377Z,23.97
2017-11-29T10:29:49.528Z,23.75
2017-11-29T10:32:22.333Z,23.62
2017-11-29T10:34:54.159Z,23.60
2017-11-29T10:37:26.067Z,23.62
2017-11-29T10:39:58.320Z,23.63
2017-11-29T10:42:29.980Z,23.70
2017-11-29T10:45:03.408Z,23.71
2017-11-29T10:47:35.836Z,23.74
2017-11-29T10:50:07.631Z,23.95
2017-11-29T10:52:39.436Z,24.04
2017-11-29T10:55:11.194Z,23.94
2017-11-29T10:57:43.044Z,23.89
2017-11-29T11:00:21.160Z,23.82
2017-11-29T11:02:53.372Z,23.83
2017-11-29T11:05:24.988Z,23.87
2017-11-29T11:07:57.341Z,23.89
2017-11-29T11:10:29.344Z,23.94
2017-11-29T11:13:01.700Z,23.97
2017-11-29T11:15:33.287Z,23.97
2017-11-29T11:18:05.818Z,24.00
2017-11-29T11:20:38.491Z,24.00
2017-11-29T11:23:11.382Z,24.08
2017-11-29T11:25:46.117Z,24.05
2017-11-29T11:28:20.619Z,24.06
2017-11-29T11:30:53.290Z,24.18
2017-11-29T11:33:25.386Z,24.20
2017-11-29T11:35:57.172Z,24.25
2017-11-29T11:38:29.882Z,24.40
2017-11-29T11:41:04.624Z,24.46
2017-11-29T11:43:37.387Z,24.50
2017-11-29T11:46:09.997Z,24.55
2017-11-29T11:48:43.504Z,24.65
2017-11-29T11:51:17.500Z,24.70
2017-11-29T11:53:49.263Z,24.62
2017-11-29T11:56:22.992Z,24.66
2017-11-29T11:58:57.571Z,24.66
2017-11-29T12:01:31.129Z,24.61
2017-11-29T12:04:04.007Z,24.67
2017-11-29T12:06:36.782Z,24.69
2017-11-29T12:09:10.355Z,24.73
2017-11-29T12:11:44.296Z,24.79
2017-11-29T12:14:16.223Z,24.76
2017-11-29T12:16:50.696Z,24.86
2017-11-29T12:19:23.395Z,24.85
2017-11-29T12:21:56.956Z,24.79
2017-11-29T12:24:30.751Z,24.86
2017-11-29T12:27:05.439Z,24.87
2017-11-29T12:29:40.000Z,24.84
2017-11-29T12:32:14.010Z,24.95
2017-11-29T12:34:45.898Z,24.97
2017-11-29T12:37:18.522Z,25.02
2017-11-29T12:39:50.835Z,25.00
2017-11-29T12:42:24.641Z,25.02
2017-11-29T12:44:58.622Z,25.05
2017-11-29T12:47:36.577Z,25.09
2017-11-29T12:51:18.761Z,25.08
2017-11-29T12:53:52.038Z,25.06
2017-11-29T12:56:27.164Z,25.10
2017-11-29T12:59:01.432Z,25.12
2017-11-29T13:01:34.663Z,25.09
2017-11-29T13:04:07.466Z,25.13
2017-11-29T13:06:39.643Z,24.84
2017-11-29T13:09:14.260Z,24.76
2017-11-29T13:11:47.274Z,24.79
2017-11-29T13:14:21.077Z,24.66
2017-11-29T13:16:54.556Z,24.47
2017-11-29T13:19:28.311Z,24.41
2017-11-29T13:22:01.878Z,24.32
2017-11-29T13:24:36.625Z,24.40
2017-11-29T13:27:10.923Z,24.48
2017-11-29T13:29:44.972Z,24.59
2017-11-29T13:32:18.496Z,24.67
2017-11-29T13:34:52.047Z,24.61
2017-11-29T13:37:25.640Z,24.68
2017-11-29T13:39:59.308Z,24.81
2017-11-29T13:42:33.040Z,24.77
2017-11-29T13:45:07.181Z,24.21
2017-11-29T13:47:40.937Z,24.39
2017-11-29T13:50:15.606Z,24.53
2017-11-29T13:52:49.228Z,24.69
2017-11-29T13:55:23.199Z,24.82
2017-11-29T13:57:56.605Z,24.67
2017-11-29T14:00:30.578Z,24.26
2017-11-29T14:03:04.183Z,24.27
2017-11-29T14:05:37.783Z,24.44
2017-11-29T14:08:11.826Z,24.54
2017-11-29T14:10:45.227Z,24.54
2017-11-29T14:13:18.850Z,24.43
2017-11-29T14:15:52.505Z,24.46
2017-11-29T14:18:26.180Z,24.21
2017-11-29T14:20:59.657Z,24.37
2017-11-29T14:23:33.307Z,24.36
2017-11-29T14:26:07.287Z,24.45
2017-11-29T14:28:40.934Z,24.45
2017-11-29T14:31:14.462Z,24.51
2017-11-29T14:33:48.223Z,24.57
2017-11-29T14:36:22.266Z,24.55
2017-11-29T14:38:56.292Z,24.12
2017-11-29T14:41:30.082Z,24.14
2017-11-29T14:44:03.748Z,24.37
2017-11-29T14:46:37.367Z,24.55
2017-11-29T14:49:10.822Z,24.57
2017-11-29T14:51:44.419Z,24.52
2017-11-29T14:54:18.310Z,24.68
2017-11-29T14:56:51.809Z,24.66
2017-11-29T14:59:25.566Z,24.57
2017-11-29T15:01:59.260Z,24.24
2017-11-29T15:04:33.090Z,24.34
2017-11-29T15:07:06.811Z,24.51
2017-11-29T15:09:40.916Z,24.38
2017-11-29T15:12:14.657Z,24.45
2017-11-29T15:14:48.385Z,24.47
2017-11-29T15:17:22.032Z,24.46
2017-11-29T15:22:39.056Z,24.59
2017-11-29T15:25:12.609Z,24.51
2017-11-29T15:27:46.108Z,24.32
2017-11-29T15:30:19.222Z,24.44
2017-11-29T15:32:51.938Z,24.31
2017-11-29T15:35:25.466Z,24.38
2017-11-29T15:37:58.192Z,24.49
2017-11-29T15:40:33.024Z,24.53
2017-11-29T15:43:05.825Z,24.56
2017-11-29T15:45:40.606Z,24.49
2017-11-29T15:48:14.342Z,24.53
2017-11-29T15:50:48.234Z,24.53
2017-11-29T15:53:22.794Z,24.37
2017-11-29T15:55:55.487Z,24.21
2017-11-29T15:58:29.046Z,24.08
2017-11-29T16:01:02.696Z,24.29
2017-11-29T16:03:36.483Z,24.34
2017-11-29T16:06:10.933Z,24.27
2017-11-29T16:08:44.396Z,24.27
2017-11-29T16:11:18.216Z,24.23
2017-11-29T16:13:51.817Z,24.23
2017-11-29T16:16:25.656Z,24.32
2017-11-29T16:18:59.590Z,24.35
2017-11-29T16:21:33.732Z,24.39
2017-11-29T16:24:07.354Z,24.51
2017-11-29T16:26:40.955Z,24.53
2017-11-29T16:29:14.738Z,24.33
2017-11-29T16:31:48.976Z,24.01
2017-11-29T16:34:21.733Z,24.23
2017-11-29T16:36:55.266Z,24.46
2017-11-29T16:39:29.677Z,24.54
2017-11-29T16:42:03.985Z,24.39
2017-11-29T16:44:37.625Z,24.52
2017-11-29T16:47:11.562Z,24.56
2017-11-29T16:49:44.387Z,24.46
2017-11-29T16:52:17.910Z,24.39
2017-11-29T16:54:50.637Z,23.96
2017-11-29T16:57:24.319Z,24.24
2017-11-29T16:59:57.100Z,24.41
2017-11-29T17:02:32.126Z,24.48
2017-11-29T17:05:04.756Z,24.60
2017-11-29T17:07:39.182Z,24.68
2017-11-29T17:10:12.715Z,24.73
2017-11-29T17:12:47.133Z,24.78
2017-11-29T17:15:20.622Z,24.83
2017-11-29T17:17:54.387Z,24.89
2017-11-29T17:20:27.944Z,24.93
2017-11-29T17:23:02.197Z,24.96
2017-11-29T17:25:35.697Z,25.07
2017-11-29T17:28:09.451Z,25.12
2017-11-29T17:30:43.003Z,24.96
2017-11-29T17:33:16.598Z,24.88
2017-11-29T17:35:50.892Z,24.94
2017-11-29T17:38:24.518Z,24.83
2017-11-29T17:40:58.218Z,24.19
2017-11-29T17:43:31.176Z,24.29
2017-11-29T17:46:05.539Z,24.53
2017-11-29T17:48:38.274Z,24.59
2017-11-29T17:51:12.529Z,24.66
2017-11-29T17:53:46.184Z,24.63
2017-11-29T17:56:17.950Z,24.23
2017-11-29T17:58:51.444Z,24.28
2017-11-29T18:01:25.200Z,24.49
2017-11-29T18:03:57.869Z,24.62
2017-11-29T18:06:30.595Z,24.72
2017-11-29T18:09:03.458Z,24.64
2017-11-29T18:11:36.662Z,24.28
2017-11-29T18:14:09.542Z,24.25
2017-11-29T18:16:42.261Z,24.46
2017-11-29T18:19:14.994Z,24.56
2017-11-29T18:21:49.451Z,24.65
2017-11-29T18:24:22.473Z,24.68
2017-11-29T18:26:55.307Z,24.68
2017-11-29T18:29:28.059Z,24.37
2017-11-29T18:32:00.855Z,24.24
2017-11-29T18:34:33.614Z,24.44
2017-11-29T18:37:05.978Z,24.55
2017-11-29T18:39:39.473Z,24.61
2017-11-29T18:44:46.670Z,24.12
2017-11-29T18:47:19.290Z,24.21
2017-11-29T18:49:50.985Z,24.47
2017-11-29T18:52:23.381Z,24.57
2017-11-29T18:54:56.001Z,24.66
2017-11-29T18:57:28.457Z,24.66
2017-11-29T19:00:00.677Z,24.56
2017-11-29T19:02:35.243Z,24.04
2017-11-29T19:05:08.078Z,24.12
2017-11-29T19:07:40.271Z,24.42
2017-11-29T19:10:12.184Z,24.56
2017-11-29T19:12:45.801Z,24.72
2017-11-29T19:15:19.063Z,24.57
2017-11-29T19:17:52.226Z,24.24
2017-11-29T19:20:24.287Z,24.23
2017-11-29T19:22:56.392Z,24.45
2017-11-29T19:25:29.087Z,24.52
2017-11-29T19:28:01.035Z,24.59
2017-11-29T19:30:35.160Z,24.58
2017-11-29T19:33:07.082Z,24.11
2017-11-29T19:35:39.837Z,24.21
2017-11-29T19:38:13.469Z,24.24
2017-11-29T19:40:45.769Z,24.38
2017-11-29T19:43:19.021Z,24.36
2017-11-29T19:45:52.810Z,24.34
2017-11-29T19:48:26.744Z,24.33
2017-11-29T19:51:00.821Z,24.35
2017-11-29T19:53:33.551Z,24.34
2017-11-29T19:56:07.118Z,24.32
2017-11-29T19:58:40.816Z,24.32
2017-11-29T20:01:14.495Z,24.25
2017-11-29T20:03:48.112Z,24.23
2017-11-29T20:06:22.007Z,24.18
2017-11-29T20:08:56.512Z,24.18
2017-11-29T20:11:29.312Z,24.18
2017-11-29T20:14:03.063Z,24.12
2017-11-29T20:16:37.860Z,24.15
2017-11-29T20:19:10.564Z,24.14
2017-11-29T20:21:42.444Z,24.15
2017-11-29T20:24:16.822Z,24.12
2017-11-29T20:26:51.447Z,24.16
2017-11-29T20:29:25.708Z,24.06
2017-11-29T20:32:00.232Z,24.08
2017-11-29T20:34:32.933Z,23.99
2017-11-29T20:37:07.280Z,24.01
2017-11-29T20:39:41.084Z,24.05
2017-11-29T20:42:13.626Z,23.97
2017-11-29T20:44:47.724Z,23.98
2017-11-29T20:47:21.662Z,24.01
2017-11-29T20:49:54.176Z,23.90
2017-11-29T20:52:35.885Z,23.90
2017-11-29T20:55:09.583Z,23.92
2017-11-29T20:57:43.214Z,23.87
2017-11-29T21:00:17.564Z,23.89
2017-11-29T21:02:51.960Z,24.30
2017-11-29T21:05:25.405Z,24.75
2017-11-29T21:07:59.144Z,24.50
2017-11-29T21:10:32.717Z,24.53
2017-11-29T21:13:07.811Z,24.05
2017-11-29T21:15:42.221Z,23.99
2017-11-29T21:18:15.899Z,23.91
2017-11-29T21:20:49.619Z,24.02
2017-11-29T21:23:24.286Z,24.08
2017-11-29T21:25:56.613Z,24.23
2017-11-29T21:28:28.507Z,24.25
2017-11-29T21:31:02.883Z,24.26
2017-11-29T21:33:34.705Z,24.27
2017-11-29T21:36:07.533Z,24.29
2017-11-29T21:38:39.580Z,24.29
2017-11-29T21:41:14.516Z,24.26
2017-11-29T21:43:48.992Z,24.18
2017-11-29T21:46:21.142Z,24.21
2017-11-29T21:48:54.521Z,24.18
2017-11-29T21:51:27.146Z,24.18
2017-11-29T21:54:00.150Z,24.92
2017-11-29T21:56:33.060Z,25.07
2017-11-29T21:59:04.758Z,24.72
2017-11-29T22:01:37.708Z,24.22
2017-11-29T22:04:12.159Z,24.05
2017-11-29T22:06:44.813Z,23.92
2017-11-29T22:09:17.618Z,23.84
2017-11-29T22:11:51.195Z,23.92
2017-11-29T22:14:25.214Z,23.89
2017-11-29T22:16:57.973Z,23.88
2017-11-29T22:19:31.609Z,23.93
2017-11-29T22:22:03.927Z,23.91
2017-11-29T22:24:37.486Z,23.94
2017-11-29T22:27:12.088Z,23.90
2017-11-29T22:29:46.693Z,23.82
2017-11-29T22:32:19.265Z,23.77
2017-11-29T22:34:52.409Z,23.92
2017-11-29T22:37:26.006Z,23.94
2017-11-29T22:39:59.578Z,23.99
2017-11-29T22:42:33.790Z,24.49
2017-11-29T22:45:07.290Z,24.82
2017-11-29T22:47:41.340Z,24.59
2017-11-29T22:50:14.865Z,24.60
2017-11-29T22:52:48.596Z,24.63
2017-11-29T22:55:22.960Z,24.63
2017-11-29T22:57:57.675Z,24.60
2017-11-29T23:00:30.218Z,24.62
2017-11-29T23:03:04.025Z,24.66
2017-11-29T23:05:36.170Z,24.68
2017-11-29T23:08:08.326Z,24.63
2017-11-29T23:10:42.776Z,24.39
2017-11-29T23:13:17.286Z,24.35
2017-11-29T23:15:50.186Z,24.32
2017-11-29T23:18:23.328Z,24.24
2017-11-29T23:20:55.948Z,24.14
2017-11-29T23:23:29.583Z,24.16
2017-11-29T23:26:03.459Z,24.08
2017-11-29T23:28:37.867Z,24.00
2017-11-29T23:31:12.424Z,24.23
2017-11-29T23:33:46.092Z,24.84
2017-11-29T23:36:17.825Z,24.83
2017-11-29T23:38:51.638Z,24.74
2017-11-29T23:41:25.267Z,24.63
2017-11-29T23:43:57.166Z,24.34
2017-11-29T23:46:30.008Z,24.27
2017-11-29T23:49:02.578Z,24.10
2017-11-29T23:51:34.444Z,24.00
2017-11-29T23:54:06.321Z,23.94
2017-11-29T23:56:38.146Z,23.95
2017-11-29T23:59:11.309Z,23.83
